Pink Shrimp — ZCXB3 — position and weather

sailwx.info

Track history (hours):
 
Tides and Currents Weather Stations Pressure Air Temp Water Temp Dewpoint Dewpoint Depression Visibility Wind Speed Wind Dir Waves Ship Positions

Pink Shrimp

Last reported at 2017-Oct-01 09:01 UTC. Time now 2017-Oct-23 06:29 UTC.
Position N 43°26' E 006°57'.
Warning: this ship's position is 21 days out of date.

Length 32 m; draft 3.5 m.

Type: Pleasure craft. MMSI: 319203000.

Date/timePositionNaut miles runAvg speedWind from/ knotsBaromVisibWave heightAir tempDewpointWater temp
2017-Oct-01 09:01N 43°26' E 006°57'0 8.1
2017-Oct-01 09:00N 43°26' E 006°57'4 8.9
2017-Oct-01 08:31N 43°29' E 007°02'4 9.0
2017-Oct-01 08:01N 43°31' E 007°07'5 8.8
2017-Oct-01 07:27N 43°34' E 007°12'  
2017-Sep-28 10:53N 43°32' E 007°07'3 7.9
2017-Sep-28 10:30N 43°30' E 007°04'4 8.1
2017-Sep-28 10:00N 43°28' E 006°60'  
2017-Sep-25 01:43N 43°16' E 007°01'3 9.2
2017-Sep-25 01:22N 43°15' E 007°05'4 9.3
2017-Sep-25 00:59N 43°15' E 007°10'4 9.1
2017-Sep-25 00:30N 43°15' E 007°16'  
Track history (hours):
 
Tides and Currents Weather Stations Pressure Air Temp Water Temp Dewpoint Dewpoint Depression Visibility Wind Speed Wind Dir Waves Ship Positions

Pink Shrimp

Last reported at 2017-Oct-01 09:01 UTC. Time now 2017-Oct-23 06:29 UTC.
Position N 43°26' E 006°57'.
Warning: this ship's position is 21 days out of date.

Length 32 m; draft 3.5 m.

Type: Pleasure craft. MMSI: 319203000.

Date/timePositionNaut miles runAvg speedWind from/ knotsBaromVisibWave heightAir tempDewpointWater temp
2017-Oct-01 09:01N 43°26' E 006°57'0 8.1
2017-Oct-01 09:00N 43°26' E 006°57'4 8.9
2017-Oct-01 08:31N 43°29' E 007°02'4 9.0
2017-Oct-01 08:01N 43°31' E 007°07'5 8.8
2017-Oct-01 07:27N 43°34' E 007°12'  
2017-Sep-28 10:53N 43°32' E 007°07'3 7.9
2017-Sep-28 10:30N 43°30' E 007°04'4 8.1
2017-Sep-28 10:00N 43°28' E 006°60'  
2017-Sep-25 01:43N 43°16' E 007°01'3 9.2
2017-Sep-25 01:22N 43°15' E 007°05'4 9.3
2017-Sep-25 00:59N 43°15' E 007°10'4 9.1
2017-Sep-25 00:30N 43°15' E 007°16'  

Dump ship's entire track history